sensor_id;sensor_type;location;lat;lon;timestamp;P1;durP1;ratioP1;P2;durP2;ratioP2
69260;SDS011;56378;52.404;20.816;2024-02-26T00:01:38;16.27;;;6.25;;
69260;SDS011;56378;52.404;20.816;2024-02-26T00:04:04;13.97;;;5.77;;
69260;SDS011;56378;52.404;20.816;2024-02-26T00:06:30;16.60;;;6.07;;
69260;SDS011;56378;52.404;20.816;2024-02-26T00:08:56;17.35;;;7.25;;
69260;SDS011;56378;52.404;20.816;2024-02-26T00:11:24;16.40;;;6.70;;
69260;SDS011;56378;52.404;20.816;2024-02-26T00:13:50;13.15;;;6.10;;
69260;SDS011;56378;52.404;20.816;2024-02-26T00:16:15;17.57;;;7.03;;
69260;SDS011;56378;52.404;20.816;2024-02-26T00:18:41;21.50;;;8.52;;
69260;SDS011;56378;52.404;20.816;2024-02-26T00:21:07;23.33;;;8.90;;
69260;SDS011;56378;52.404;20.816;2024-02-26T00:23:32;26.38;;;9.05;;
69260;SDS011;56378;52.404;20.816;2024-02-26T00:25:58;19.33;;;8.50;;
69260;SDS011;56378;52.404;20.816;2024-02-26T00:28:24;21.88;;;7.63;;
69260;SDS011;56378;52.404;20.816;2024-02-26T00:30:50;19.80;;;7.40;;
69260;SDS011;56378;52.404;20.816;2024-02-26T00:33:20;15.25;;;6.45;;
69260;SDS011;56378;52.404;20.816;2024-02-26T00:35:46;14.73;;;6.35;;
69260;SDS011;56378;52.404;20.816;2024-02-26T00:38:12;17.65;;;6.25;;
69260;SDS011;56378;52.404;20.816;2024-02-26T00:40:38;15.83;;;6.30;;
69260;SDS011;56378;52.404;20.816;2024-02-26T00:43:07;17.77;;;6.20;;
69260;SDS011;56378;52.404;20.816;2024-02-26T00:45:32;14.38;;;5.55;;
69260;SDS011;56378;52.404;20.816;2024-02-26T00:47:58;18.58;;;6.82;;
69260;SDS011;56378;52.404;20.816;2024-02-26T00:50:26;17.17;;;6.50;;
69260;SDS011;56378;52.404;20.816;2024-02-26T00:52:52;15.80;;;6.50;;
69260;SDS011;56378;52.404;20.816;2024-02-26T00:55:18;16.27;;;6.47;;
69260;SDS011;56378;52.404;20.816;2024-02-26T00:57:43;13.93;;;6.50;;
69260;SDS011;56378;52.404;20.816;2024-02-26T01:00:09;14.73;;;6.28;;
69260;SDS011;56378;52.404;20.816;2024-02-26T01:02:35;15.30;;;5.93;;
69260;SDS011;56378;52.404;20.816;2024-02-26T01:05:01;15.70;;;6.18;;
69260;SDS011;56378;52.404;20.816;2024-02-26T01:07:28;13.48;;;6.00;;
69260;SDS011;56378;52.404;20.816;2024-02-26T01:09:53;13.35;;;5.72;;
69260;SDS011;56378;52.404;20.816;2024-02-26T01:12:21;17.27;;;7.97;;
69260;SDS011;56378;52.404;20.816;2024-02-26T01:14:47;18.80;;;9.18;;
69260;SDS011;56378;52.404;20.816;2024-02-26T01:17:12;16.80;;;6.20;;
69260;SDS011;56378;52.404;20.816;2024-02-26T01:19:38;15.00;;;5.65;;
69260;SDS011;56378;52.404;20.816;2024-02-26T01:22:04;15.80;;;5.87;;
69260;SDS011;56378;52.404;20.816;2024-02-26T01:24:29;13.00;;;5.40;;
69260;SDS011;56378;52.404;20.816;2024-02-26T01:26:55;12.35;;;5.70;;
69260;SDS011;56378;52.404;20.816;2024-02-26T01:29:21;13.33;;;5.90;;
69260;SDS011;56378;52.404;20.816;2024-02-26T01:31:46;17.27;;;6.30;;
69260;SDS011;56378;52.404;20.816;2024-02-26T01:34:12;16.50;;;6.67;;
69260;SDS011;56378;52.404;20.816;2024-02-26T01:36:39;17.60;;;6.00;;
69260;SDS011;56378;52.404;20.816;2024-02-26T01:39:04;13.40;;;6.25;;
69260;SDS011;56378;52.404;20.816;2024-02-26T01:41:30;13.40;;;5.70;;
69260;SDS011;56378;52.404;20.816;2024-02-26T01:43:56;11.98;;;5.32;;
69260;SDS011;56378;52.404;20.816;2024-02-26T01:46:22;12.13;;;5.30;;
69260;SDS011;56378;52.404;20.816;2024-02-26T01:48:47;13.20;;;5.65;;
69260;SDS011;56378;52.404;20.816;2024-02-26T01:51:15;13.85;;;6.57;;
69260;SDS011;56378;52.404;20.816;2024-02-26T01:53:42;14.85;;;5.65;;
69260;SDS011;56378;52.404;20.816;2024-02-26T01:56:08;12.80;;;5.55;;
69260;SDS011;56378;52.404;20.816;2024-02-26T01:58:34;12.35;;;5.47;;
69260;SDS011;56378;52.404;20.816;2024-02-26T02:01:01;15.43;;;6.55;;
69260;SDS011;56378;52.404;20.816;2024-02-26T02:03:28;12.43;;;5.70;;
69260;SDS011;56378;52.404;20.816;2024-02-26T02:05:55;16.53;;;5.90;;
69260;SDS011;56378;52.404;20.816;2024-02-26T02:08:21;11.70;;;5.38;;
69260;SDS011;56378;52.404;20.816;2024-02-26T02:10:48;11.93;;;5.95;;
69260;SDS011;56378;52.404;20.816;2024-02-26T02:13:15;14.85;;;6.10;;
69260;SDS011;56378;52.404;20.816;2024-02-26T02:15:40;15.33;;;6.47;;
69260;SDS011;56378;52.404;20.816;2024-02-26T02:18:06;14.93;;;6.28;;
69260;SDS011;56378;52.404;20.816;2024-02-26T02:20:32;16.77;;;6.32;;
69260;SDS011;56378;52.404;20.816;2024-02-26T02:22:59;13.93;;;6.00;;
69260;SDS011;56378;52.404;20.816;2024-02-26T02:25:25;15.55;;;6.68;;
69260;SDS011;56378;52.404;20.816;2024-02-26T02:27:51;18.15;;;6.55;;
69260;SDS011;56378;52.404;20.816;2024-02-26T02:30:19;14.88;;;6.22;;
69260;SDS011;56378;52.404;20.816;2024-02-26T02:32:47;16.55;;;6.63;;
69260;SDS011;56378;52.404;20.816;2024-02-26T02:35:12;14.80;;;6.47;;
69260;SDS011;56378;52.404;20.816;2024-02-26T02:37:38;12.85;;;5.72;;
69260;SDS011;56378;52.404;20.816;2024-02-26T02:40:04;16.08;;;6.25;;
69260;SDS011;56378;52.404;20.816;2024-02-26T02:42:34;14.63;;;6.13;;
69260;SDS011;56378;52.404;20.816;2024-02-26T02:45:00;13.73;;;6.10;;
69260;SDS011;56378;52.404;20.816;2024-02-26T02:47:25;18.60;;;6.85;;
69260;SDS011;56378;52.404;20.816;2024-02-26T02:49:51;15.40;;;6.30;;
69260;SDS011;56378;52.404;20.816;2024-02-26T02:52:17;14.80;;;6.25;;
69260;SDS011;56378;52.404;20.816;2024-02-26T02:54:42;16.47;;;6.50;;
69260;SDS011;56378;52.404;20.816;2024-02-26T02:57:08;15.65;;;6.70;;
69260;SDS011;56378;52.404;20.816;2024-02-26T02:59:35;17.57;;;6.90;;
69260;SDS011;56378;52.404;20.816;2024-02-26T03:02:01;16.38;;;6.95;;
69260;SDS011;56378;52.404;20.816;2024-02-26T03:04:27;16.05;;;6.78;;
69260;SDS011;56378;52.404;20.816;2024-02-26T03:06:54;13.55;;;6.35;;
69260;SDS011;56378;52.404;20.816;2024-02-26T03:09:20;18.07;;;6.47;;
69260;SDS011;56378;52.404;20.816;2024-02-26T03:11:46;15.52;;;6.20;;
69260;SDS011;56378;52.404;20.816;2024-02-26T03:14:11;18.83;;;6.27;;
69260;SDS011;56378;52.404;20.816;2024-02-26T03:16:37;15.52;;;6.53;;
69260;SDS011;56378;52.404;20.816;2024-02-26T03:19:03;15.70;;;6.57;;
69260;SDS011;56378;52.404;20.816;2024-02-26T03:21:29;16.50;;;6.82;;
69260;SDS011;56378;52.404;20.816;2024-02-26T03:23:54;16.98;;;7.95;;
69260;SDS011;56378;52.404;20.816;2024-02-26T03:26:20;19.67;;;8.00;;
69260;SDS011;56378;52.404;20.816;2024-02-26T03:28:46;17.85;;;7.55;;
69260;SDS011;56378;52.404;20.816;2024-02-26T03:31:12;19.08;;;8.07;;
69260;SDS011;56378;52.404;20.816;2024-02-26T03:33:38;19.70;;;7.67;;
69260;SDS011;56378;52.404;20.816;2024-02-26T03:36:04;16.38;;;6.68;;
69260;SDS011;56378;52.404;20.816;2024-02-26T03:38:30;19.05;;;7.72;;
69260;SDS011;56378;52.404;20.816;2024-02-26T03:40:56;22.00;;;7.90;;
69260;SDS011;56378;52.404;20.816;2024-02-26T03:43:21;20.13;;;8.30;;
69260;SDS011;56378;52.404;20.816;2024-02-26T03:45:47;20.60;;;8.73;;
69260;SDS011;56378;52.404;20.816;2024-02-26T03:48:13;18.40;;;7.57;;
69260;SDS011;56378;52.404;20.816;2024-02-26T03:50:39;19.87;;;7.53;;
69260;SDS011;56378;52.404;20.816;2024-02-26T03:53:04;21.38;;;8.15;;
69260;SDS011;56378;52.404;20.816;2024-02-26T03:55:30;23.27;;;8.07;;
69260;SDS011;56378;52.404;20.816;2024-02-26T03:57:56;20.10;;;8.52;;
69260;SDS011;56378;52.404;20.816;2024-02-26T04:00:22;24.47;;;10.17;;
69260;SDS011;56378;52.404;20.816;2024-02-26T04:02:47;22.55;;;9.45;;
69260;SDS011;56378;52.404;20.816;2024-02-26T04:05:13;24.27;;;8.67;;
69260;SDS011;56378;52.404;20.816;2024-02-26T04:07:39;17.42;;;7.90;;
69260;SDS011;56378;52.404;20.816;2024-02-26T04:10:09;16.27;;;7.15;;
69260;SDS011;56378;52.404;20.816;2024-02-26T04:12:39;18.77;;;7.93;;
69260;SDS011;56378;52.404;20.816;2024-02-26T04:15:06;18.10;;;8.20;;
69260;SDS011;56378;52.404;20.816;2024-02-26T04:17:33;19.45;;;7.82;;
69260;SDS011;56378;52.404;20.816;2024-02-26T04:19:59;20.55;;;8.30;;
69260;SDS011;56378;52.404;20.816;2024-02-26T04:22:25;18.63;;;8.27;;
69260;SDS011;56378;52.404;20.816;2024-02-26T04:24:50;21.00;;;8.20;;
69260;SDS011;56378;52.404;20.816;2024-02-26T04:27:16;20.88;;;9.25;;
69260;SDS011;56378;52.404;20.816;2024-02-26T04:29:42;23.80;;;8.55;;
69260;SDS011;56378;52.404;20.816;2024-02-26T04:32:07;24.33;;;10.18;;
69260;SDS011;56378;52.404;20.816;2024-02-26T04:34:33;20.27;;;8.87;;
69260;SDS011;56378;52.404;20.816;2024-02-26T04:36:59;19.80;;;8.30;;
69260;SDS011;56378;52.404;20.816;2024-02-26T04:39:25;20.17;;;8.67;;
69260;SDS011;56378;52.404;20.816;2024-02-26T04:41:53;21.20;;;9.15;;
69260;SDS011;56378;52.404;20.816;2024-02-26T04:44:18;22.70;;;9.20;;
69260;SDS011;56378;52.404;20.816;2024-02-26T04:46:44;21.33;;;8.87;;
69260;SDS011;56378;52.404;20.816;2024-02-26T04:49:10;21.52;;;9.35;;
69260;SDS011;56378;52.404;20.816;2024-02-26T04:51:36;21.27;;;9.50;;
69260;SDS011;56378;52.404;20.816;2024-02-26T04:54:02;20.58;;;9.35;;
69260;SDS011;56378;52.404;20.816;2024-02-26T04:56:28;26.00;;;10.07;;
69260;SDS011;56378;52.404;20.816;2024-02-26T04:58:53;21.20;;;9.83;;
69260;SDS011;56378;52.404;20.816;2024-02-26T05:01:19;19.98;;;9.18;;
69260;SDS011;56378;52.404;20.816;2024-02-26T05:03:45;19.63;;;9.37;;
69260;SDS011;56378;52.404;20.816;2024-02-26T05:06:11;25.05;;;9.82;;
69260;SDS011;56378;52.404;20.816;2024-02-26T05:08:38;21.02;;;9.63;;
69260;SDS011;56378;52.404;20.816;2024-02-26T05:11:04;21.47;;;10.00;;
69260;SDS011;56378;52.404;20.816;2024-02-26T05:13:30;23.63;;;10.02;;
69260;SDS011;56378;52.404;20.816;2024-02-26T05:15:56;27.88;;;9.40;;
69260;SDS011;56378;52.404;20.816;2024-02-26T05:18:22;22.37;;;9.33;;
69260;SDS011;56378;52.404;20.816;2024-02-26T05:20:48;20.15;;;9.80;;
69260;SDS011;56378;52.404;20.816;2024-02-26T05:23:13;23.03;;;9.93;;
69260;SDS011;56378;52.404;20.816;2024-02-26T05:25:39;27.15;;;10.60;;
69260;SDS011;56378;52.404;20.816;2024-02-26T05:28:06;28.90;;;10.93;;
69260;SDS011;56378;52.404;20.816;2024-02-26T05:30:32;26.67;;;11.13;;
69260;SDS011;56378;52.404;20.816;2024-02-26T05:32:58;27.48;;;12.05;;
69260;SDS011;56378;52.404;20.816;2024-02-26T05:35:24;28.98;;;11.80;;
69260;SDS011;56378;52.404;20.816;2024-02-26T05:37:51;27.50;;;12.63;;
69260;SDS011;56378;52.404;20.816;2024-02-26T05:40:16;29.30;;;12.10;;
69260;SDS011;56378;52.404;20.816;2024-02-26T05:42:42;26.33;;;10.80;;
69260;SDS011;56378;52.404;20.816;2024-02-26T05:45:10;26.95;;;11.57;;
69260;SDS011;56378;52.404;20.816;2024-02-26T05:47:36;25.83;;;12.27;;
69260;SDS011;56378;52.404;20.816;2024-02-26T05:50:07;31.30;;;12.65;;
69260;SDS011;56378;52.404;20.816;2024-02-26T05:52:36;39.33;;;13.80;;
69260;SDS011;56378;52.404;20.816;2024-02-26T05:55:03;37.47;;;14.73;;
69260;SDS011;56378;52.404;20.816;2024-02-26T05:57:30;36.45;;;13.90;;
69260;SDS011;56378;52.404;20.816;2024-02-26T05:59:56;28.08;;;13.23;;
69260;SDS011;56378;52.404;20.816;2024-02-26T06:02:22;39.05;;;14.95;;
69260;SDS011;56378;52.404;20.816;2024-02-26T06:04:48;33.35;;;14.02;;
69260;SDS011;56378;52.404;20.816;2024-02-26T06:07:13;37.20;;;14.00;;
69260;SDS011;56378;52.404;20.816;2024-02-26T06:09:39;29.70;;;12.77;;
69260;SDS011;56378;52.404;20.816;2024-02-26T06:12:07;28.00;;;12.40;;
69260;SDS011;56378;52.404;20.816;2024-02-26T06:14:33;28.90;;;12.60;;
69260;SDS011;56378;52.404;20.816;2024-02-26T06:16:59;32.67;;;12.98;;
69260;SDS011;56378;52.404;20.816;2024-02-26T06:19:24;26.87;;;11.40;;
69260;SDS011;56378;52.404;20.816;2024-02-26T06:21:50;26.88;;;11.73;;
69260;SDS011;56378;52.404;20.816;2024-02-26T06:24:16;23.57;;;10.57;;
69260;SDS011;56378;52.404;20.816;2024-02-26T06:26:41;28.88;;;11.60;;
69260;SDS011;56378;52.404;20.816;2024-02-26T06:29:07;27.83;;;10.93;;
69260;SDS011;56378;52.404;20.816;2024-02-26T06:31:33;25.17;;;11.70;;
69260;SDS011;56378;52.404;20.816;2024-02-26T06:33:59;24.60;;;11.30;;
69260;SDS011;56378;52.404;20.816;2024-02-26T06:38:59;25.50;;;11.48;;
69260;SDS011;56378;52.404;20.816;2024-02-26T06:41:25;24.42;;;10.82;;
69260;SDS011;56378;52.404;20.816;2024-02-26T06:43:55;26.77;;;11.20;;
69260;SDS011;56378;52.404;20.816;2024-02-26T06:46:22;26.77;;;11.65;;
69260;SDS011;56378;52.404;20.816;2024-02-26T06:48:48;24.00;;;12.00;;
69260;SDS011;56378;52.404;20.816;2024-02-26T06:51:14;27.52;;;12.68;;
69260;SDS011;56378;52.404;20.816;2024-02-26T06:53:40;23.80;;;11.83;;
69260;SDS011;56378;52.404;20.816;2024-02-26T06:56:06;24.52;;;12.15;;
69260;SDS011;56378;52.404;20.816;2024-02-26T06:58:31;25.02;;;12.10;;
69260;SDS011;56378;52.404;20.816;2024-02-26T07:00:58;29.63;;;12.38;;
69260;SDS011;56378;52.404;20.816;2024-02-26T07:03:23;27.60;;;12.65;;
69260;SDS011;56378;52.404;20.816;2024-02-26T07:05:50;26.40;;;13.25;;
69260;SDS011;56378;52.404;20.816;2024-02-26T07:08:16;24.40;;;12.20;;
69260;SDS011;56378;52.404;20.816;2024-02-26T07:10:44;23.73;;;11.95;;
69260;SDS011;56378;52.404;20.816;2024-02-26T07:13:10;28.02;;;12.75;;
69260;SDS011;56378;52.404;20.816;2024-02-26T07:15:38;25.48;;;12.90;;
69260;SDS011;56378;52.404;20.816;2024-02-26T07:18:04;26.30;;;14.03;;
69260;SDS011;56378;52.404;20.816;2024-02-26T07:20:30;25.30;;;13.88;;
69260;SDS011;56378;52.404;20.816;2024-02-26T07:22:57;23.63;;;13.27;;
69260;SDS011;56378;52.404;20.816;2024-02-26T07:25:23;24.48;;;13.70;;
69260;SDS011;56378;52.404;20.816;2024-02-26T07:27:49;25.43;;;13.83;;
69260;SDS011;56378;52.404;20.816;2024-02-26T07:30:15;24.98;;;13.68;;
69260;SDS011;56378;52.404;20.816;2024-02-26T07:32:42;23.88;;;14.27;;
69260;SDS011;56378;52.404;20.816;2024-02-26T07:35:08;24.98;;;14.88;;
69260;SDS011;56378;52.404;20.816;2024-02-26T07:37:33;25.80;;;15.10;;
69260;SDS011;56378;52.404;20.816;2024-02-26T07:39:59;24.38;;;15.20;;
69260;SDS011;56378;52.404;20.816;2024-02-26T07:42:26;25.08;;;15.95;;
69260;SDS011;56378;52.404;20.816;2024-02-26T07:44:52;20.83;;;14.80;;
69260;SDS011;56378;52.404;20.816;2024-02-26T07:47:18;25.60;;;16.30;;
69260;SDS011;56378;52.404;20.816;2024-02-26T07:49:44;26.48;;;16.10;;
69260;SDS011;56378;52.404;20.816;2024-02-26T07:52:10;27.00;;;15.50;;
69260;SDS011;56378;52.404;20.816;2024-02-26T07:54:36;26.70;;;16.23;;
69260;SDS011;56378;52.404;20.816;2024-02-26T07:57:02;31.38;;;16.15;;
69260;SDS011;56378;52.404;20.816;2024-02-26T07:59:30;25.77;;;15.93;;
69260;SDS011;56378;52.404;20.816;2024-02-26T08:01:56;29.20;;;15.90;;
69260;SDS011;56378;52.404;20.816;2024-02-26T08:04:22;27.42;;;15.77;;
69260;SDS011;56378;52.404;20.816;2024-02-26T08:06:48;27.47;;;15.63;;
69260;SDS011;56378;52.404;20.816;2024-02-26T08:09:14;23.43;;;14.00;;
69260;SDS011;56378;52.404;20.816;2024-02-26T08:11:43;96.55;;;47.83;;
69260;SDS011;56378;52.404;20.816;2024-02-26T08:14:08;31.40;;;17.25;;
69260;SDS011;56378;52.404;20.816;2024-02-26T08:16:34;26.77;;;16.00;;
69260;SDS011;56378;52.404;20.816;2024-02-26T08:19:00;26.73;;;14.98;;
69260;SDS011;56378;52.404;20.816;2024-02-26T08:21:25;28.90;;;15.00;;
69260;SDS011;56378;52.404;20.816;2024-02-26T08:23:51;29.85;;;15.27;;
69260;SDS011;56378;52.404;20.816;2024-02-26T08:26:17;26.27;;;14.87;;
69260;SDS011;56378;52.404;20.816;2024-02-26T08:28:45;28.67;;;16.30;;
69260;SDS011;56378;52.404;20.816;2024-02-26T08:31:12;24.90;;;15.07;;
69260;SDS011;56378;52.404;20.816;2024-02-26T08:33:38;27.45;;;16.00;;
69260;SDS011;56378;52.404;20.816;2024-02-26T08:36:04;30.97;;;16.50;;
69260;SDS011;56378;52.404;20.816;2024-02-26T08:38:34;21.42;;;14.70;;
69260;SDS011;56378;52.404;20.816;2024-02-26T08:41:01;22.38;;;15.02;;
69260;SDS011;56378;52.404;20.816;2024-02-26T08:43:31;23.05;;;15.07;;
69260;SDS011;56378;52.404;20.816;2024-02-26T08:45:57;22.03;;;15.10;;
69260;SDS011;56378;52.404;20.816;2024-02-26T08:48:23;24.00;;;16.10;;
69260;SDS011;56378;52.404;20.816;2024-02-26T08:50:52;27.80;;;16.95;;
69260;SDS011;56378;52.404;20.816;2024-02-26T08:53:19;25.02;;;16.67;;
69260;SDS011;56378;52.404;20.816;2024-02-26T08:55:46;24.30;;;16.70;;
69260;SDS011;56378;52.404;20.816;2024-02-26T08:58:11;22.95;;;16.58;;
69260;SDS011;56378;52.404;20.816;2024-02-26T09:00:37;23.98;;;16.92;;
69260;SDS011;56378;52.404;20.816;2024-02-26T09:03:03;23.93;;;17.20;;
69260;SDS011;56378;52.404;20.816;2024-02-26T09:05:29;23.17;;;16.25;;
69260;SDS011;56378;52.404;20.816;2024-02-26T09:07:55;22.98;;;15.70;;
69260;SDS011;56378;52.404;20.816;2024-02-26T09:10:21;20.30;;;16.03;;
69260;SDS011;56378;52.404;20.816;2024-02-26T09:12:47;21.05;;;15.40;;
69260;SDS011;56378;52.404;20.816;2024-02-26T09:15:13;26.33;;;19.00;;
69260;SDS011;56378;52.404;20.816;2024-02-26T09:17:39;19.75;;;14.65;;
69260;SDS011;56378;52.404;20.816;2024-02-26T09:20:05;22.55;;;15.80;;
69260;SDS011;56378;52.404;20.816;2024-02-26T09:22:31;22.97;;;14.93;;
69260;SDS011;56378;52.404;20.816;2024-02-26T09:24:57;21.23;;;15.48;;
69260;SDS011;56378;52.404;20.816;2024-02-26T09:27:22;19.35;;;13.98;;
69260;SDS011;56378;52.404;20.816;2024-02-26T09:29:48;20.43;;;14.63;;
69260;SDS011;56378;52.404;20.816;2024-02-26T09:32:14;18.77;;;14.48;;
69260;SDS011;56378;52.404;20.816;2024-02-26T09:34:40;19.42;;;14.13;;
69260;SDS011;56378;52.404;20.816;2024-02-26T09:37:06;20.37;;;14.63;;
69260;SDS011;56378;52.404;20.816;2024-02-26T09:39:32;19.95;;;14.77;;
69260;SDS011;56378;52.404;20.816;2024-02-26T09:41:58;27.65;;;21.80;;
69260;SDS011;56378;52.404;20.816;2024-02-26T09:44:28;21.83;;;15.53;;
69260;SDS011;56378;52.404;20.816;2024-02-26T09:46:55;21.05;;;15.27;;
69260;SDS011;56378;52.404;20.816;2024-02-26T09:49:23;20.25;;;15.40;;
69260;SDS011;56378;52.404;20.816;2024-02-26T09:51:49;21.27;;;15.35;;
69260;SDS011;56378;52.404;20.816;2024-02-26T09:54:16;18.75;;;13.98;;
69260;SDS011;56378;52.404;20.816;2024-02-26T09:56:42;19.27;;;15.13;;
69260;SDS011;56378;52.404;20.816;2024-02-26T09:59:13;21.40;;;14.43;;
69260;SDS011;56378;52.404;20.816;2024-02-26T10:01:42;18.92;;;13.40;;
69260;SDS011;56378;52.404;20.816;2024-02-26T10:04:09;19.02;;;12.98;;
69260;SDS011;56378;52.404;20.816;2024-02-26T10:06:36;15.00;;;11.30;;
69260;SDS011;56378;52.404;20.816;2024-02-26T10:11:57;17.02;;;11.75;;
69260;SDS011;56378;52.404;20.816;2024-02-26T10:14:22;14.57;;;10.38;;
69260;SDS011;56378;52.404;20.816;2024-02-26T10:16:49;13.77;;;9.93;;
69260;SDS011;56378;52.404;20.816;2024-02-26T10:19:25;14.57;;;10.68;;
69260;SDS011;56378;52.404;20.816;2024-02-26T10:21:58;12.43;;;9.82;;
69260;SDS011;56378;52.404;20.816;2024-02-26T10:24:26;12.77;;;9.73;;
69260;SDS011;56378;52.404;20.816;2024-02-26T10:26:52;13.70;;;9.70;;
69260;SDS011;56378;52.404;20.816;2024-02-26T10:29:19;11.47;;;8.90;;
69260;SDS011;56378;52.404;20.816;2024-02-26T10:31:45;12.15;;;9.80;;
69260;SDS011;56378;52.404;20.816;2024-02-26T10:34:11;12.65;;;10.75;;
69260;SDS011;56378;52.404;20.816;2024-02-26T10:36:38;12.85;;;10.50;;
69260;SDS011;56378;52.404;20.816;2024-02-26T10:39:06;14.38;;;10.77;;
69260;SDS011;56378;52.404;20.816;2024-02-26T10:41:34;12.77;;;10.07;;
69260;SDS011;56378;52.404;20.816;2024-02-26T10:44:01;14.20;;;11.75;;
69260;SDS011;56378;52.404;20.816;2024-02-26T10:46:27;15.15;;;11.88;;
69260;SDS011;56378;52.404;20.816;2024-02-26T10:48:53;16.00;;;11.35;;
69260;SDS011;56378;52.404;20.816;2024-02-26T10:51:26;14.23;;;10.90;;
69260;SDS011;56378;52.404;20.816;2024-02-26T10:53:57;14.50;;;11.60;;
69260;SDS011;56378;52.404;20.816;2024-02-26T10:56:26;15.20;;;12.00;;
69260;SDS011;56378;52.404;20.816;2024-02-26T10:58:55;14.52;;;10.50;;
69260;SDS011;56378;52.404;20.816;2024-02-26T11:01:22;15.63;;;10.88;;
69260;SDS011;56378;52.404;20.816;2024-02-26T11:03:50;15.80;;;11.37;;
69260;SDS011;56378;52.404;20.816;2024-02-26T11:06:17;16.73;;;11.60;;
69260;SDS011;56378;52.404;20.816;2024-02-26T11:08:50;19.15;;;11.23;;
69260;SDS011;56378;52.404;20.816;2024-02-26T11:11:17;18.10;;;11.68;;
69260;SDS011;56378;52.404;20.816;2024-02-26T11:13:46;17.02;;;11.15;;
69260;SDS011;56378;52.404;20.816;2024-02-26T11:16:20;15.50;;;11.00;;
69260;SDS011;56378;52.404;20.816;2024-02-26T11:18:47;15.02;;;11.57;;
69260;SDS011;56378;52.404;20.816;2024-02-26T11:21:17;14.88;;;10.75;;
69260;SDS011;56378;52.404;20.816;2024-02-26T11:23:56;14.07;;;10.73;;
69260;SDS011;56378;52.404;20.816;2024-02-26T11:26:22;15.57;;;11.15;;
69260;SDS011;56378;52.404;20.816;2024-02-26T11:28:50;13.13;;;10.10;;
69260;SDS011;56378;52.404;20.816;2024-02-26T11:31:17;16.10;;;10.70;;
69260;SDS011;56378;52.404;20.816;2024-02-26T11:33:50;15.38;;;9.60;;
69260;SDS011;56378;52.404;20.816;2024-02-26T11:36:16;13.10;;;9.52;;
69260;SDS011;56378;52.404;20.816;2024-02-26T11:38:43;13.98;;;9.85;;
69260;SDS011;56378;52.404;20.816;2024-02-26T11:41:09;13.93;;;9.70;;
69260;SDS011;56378;52.404;20.816;2024-02-26T11:43:57;14.95;;;9.55;;
69260;SDS011;56378;52.404;20.816;2024-02-26T11:46:29;12.50;;;9.27;;
69260;SDS011;56378;52.404;20.816;2024-02-26T11:51:55;14.87;;;8.47;;
69260;SDS011;56378;52.404;20.816;2024-02-26T12:05:17;11.30;;;8.13;;
69260;SDS011;56378;52.404;20.816;2024-02-26T12:10:17;10.52;;;8.05;;
69260;SDS011;56378;52.404;20.816;2024-02-26T12:12:59;13.85;;;8.40;;
69260;SDS011;56378;52.404;20.816;2024-02-26T12:15:33;10.98;;;7.57;;
69260;SDS011;56378;52.404;20.816;2024-02-26T12:18:03;10.80;;;7.40;;
69260;SDS011;56378;52.404;20.816;2024-02-26T12:20:30;11.68;;;7.35;;
69260;SDS011;56378;52.404;20.816;2024-02-26T12:22:57;11.80;;;6.80;;
69260;SDS011;56378;52.404;20.816;2024-02-26T12:25:27;9.43;;;6.55;;
69260;SDS011;56378;52.404;20.816;2024-02-26T12:27:54;9.05;;;5.93;;
69260;SDS011;56378;52.404;20.816;2024-02-26T12:30:21;10.27;;;5.40;;
69260;SDS011;56378;52.404;20.816;2024-02-26T12:32:47;8.57;;;5.38;;
69260;SDS011;56378;52.404;20.816;2024-02-26T12:35:14;8.50;;;5.38;;
69260;SDS011;56378;52.404;20.816;2024-02-26T12:37:41;10.60;;;5.20;;
69260;SDS011;56378;52.404;20.816;2024-02-26T12:40:08;9.35;;;5.88;;
69260;SDS011;56378;52.404;20.816;2024-02-26T12:42:35;10.80;;;6.07;;
69260;SDS011;56378;52.404;20.816;2024-02-26T12:45:05;9.65;;;5.90;;
69260;SDS011;56378;52.404;20.816;2024-02-26T12:47:35;9.93;;;6.20;;
69260;SDS011;56378;52.404;20.816;2024-02-26T12:50:02;10.95;;;5.80;;
69260;SDS011;56378;52.404;20.816;2024-02-26T12:52:29;9.43;;;5.53;;
69260;SDS011;56378;52.404;20.816;2024-02-26T12:54:59;10.60;;;5.43;;
69260;SDS011;56378;52.404;20.816;2024-02-26T12:57:27;8.95;;;5.55;;
69260;SDS011;56378;52.404;20.816;2024-02-26T12:59:55;9.90;;;4.70;;
69260;SDS011;56378;52.404;20.816;2024-02-26T13:02:21;10.40;;;5.32;;
69260;SDS011;56378;52.404;20.816;2024-02-26T13:04:47;9.57;;;4.90;;
69260;SDS011;56378;52.404;20.816;2024-02-26T13:07:13;9.50;;;4.70;;
69260;SDS011;56378;52.404;20.816;2024-02-26T13:09:39;9.25;;;5.15;;
69260;SDS011;56378;52.404;20.816;2024-02-26T13:12:06;9.27;;;4.97;;
69260;SDS011;56378;52.404;20.816;2024-02-26T13:14:32;8.77;;;4.82;;
69260;SDS011;56378;52.404;20.816;2024-02-26T13:17:01;8.82;;;4.32;;
69260;SDS011;56378;52.404;20.816;2024-02-26T13:19:28;10.15;;;4.75;;
69260;SDS011;56378;52.404;20.816;2024-02-26T13:21:53;9.80;;;4.60;;
69260;SDS011;56378;52.404;20.816;2024-02-26T13:24:20;8.15;;;4.40;;
69260;SDS011;56378;52.404;20.816;2024-02-26T13:26:47;10.27;;;5.20;;
69260;SDS011;56378;52.404;20.816;2024-02-26T13:29:20;11.35;;;5.07;;
69260;SDS011;56378;52.404;20.816;2024-02-26T13:31:45;7.63;;;4.30;;
69260;SDS011;56378;52.404;20.816;2024-02-26T13:34:26;10.05;;;4.90;;
69260;SDS011;56378;52.404;20.816;2024-02-26T13:36:53;8.85;;;5.00;;
69260;SDS011;56378;52.404;20.816;2024-02-26T13:39:26;10.13;;;5.32;;
69260;SDS011;56378;52.404;20.816;2024-02-26T13:41:53;10.48;;;4.95;;
69260;SDS011;56378;52.404;20.816;2024-02-26T13:44:19;8.67;;;4.60;;
69260;SDS011;56378;52.404;20.816;2024-02-26T13:46:46;9.77;;;4.85;;
69260;SDS011;56378;52.404;20.816;2024-02-26T13:49:12;10.35;;;4.70;;
69260;SDS011;56378;52.404;20.816;2024-02-26T13:51:38;9.68;;;5.15;;
69260;SDS011;56378;52.404;20.816;2024-02-26T13:54:06;11.27;;;4.80;;
69260;SDS011;56378;52.404;20.816;2024-02-26T13:56:32;8.55;;;4.65;;
69260;SDS011;56378;52.404;20.816;2024-02-26T13:58:58;9.13;;;5.30;;
69260;SDS011;56378;52.404;20.816;2024-02-26T14:01:24;14.70;;;7.18;;
69260;SDS011;56378;52.404;20.816;2024-02-26T14:03:50;14.93;;;8.80;;
69260;SDS011;56378;52.404;20.816;2024-02-26T14:06:16;10.88;;;6.57;;
69260;SDS011;56378;52.404;20.816;2024-02-26T14:08:42;14.88;;;9.98;;
69260;SDS011;56378;52.404;20.816;2024-02-26T14:11:08;9.73;;;5.60;;
69260;SDS011;56378;52.404;20.816;2024-02-26T14:13:34;6.70;;;3.72;;
69260;SDS011;56378;52.404;20.816;2024-02-26T14:16:00;7.68;;;3.58;;
69260;SDS011;56378;52.404;20.816;2024-02-26T14:18:25;7.33;;;3.73;;
69260;SDS011;56378;52.404;20.816;2024-02-26T14:20:52;6.28;;;3.53;;
69260;SDS011;56378;52.404;20.816;2024-02-26T14:23:18;6.50;;;3.60;;
69260;SDS011;56378;52.404;20.816;2024-02-26T14:25:43;7.57;;;4.07;;
69260;SDS011;56378;52.404;20.816;2024-02-26T14:28:09;7.37;;;3.97;;
69260;SDS011;56378;52.404;20.816;2024-02-26T14:30:35;7.27;;;3.30;;
69260;SDS011;56378;52.404;20.816;2024-02-26T14:33:01;7.25;;;3.65;;
69260;SDS011;56378;52.404;20.816;2024-02-26T14:35:26;6.63;;;3.43;;
69260;SDS011;56378;52.404;20.816;2024-02-26T14:37:52;8.50;;;3.60;;